Time;durP1;ratioP1;P1;durP2;ratioP2;P2;SDS_P1;SDS_P2;PMS_P1;PMS_P2;Temp;Humidity;BMP_temperature;BMP_pressure;BME280_temperature;BME280_humidity;BME280_pressure;Samples;Min_cycle;Max_cycle;Signal;HPM_P1;HPM_P2
2024/02/01 00:00:32;;;;;;;7.93;6.00;;;10.00;99.90;;;;;;5021997;28;20187;-88
2024/02/01 00:02:57;;;;;;;11.63;6.40;;;10.00;99.90;;;;;;5028727;28;20283;-88
2024/02/01 00:05:22;;;;;;;9.97;6.90;;;10.10;99.90;;;;;;5033291;28;20204;-87
2024/02/01 00:07:48;;;;;;;8.40;5.90;;;9.80;99.90;;;;;;5038304;28;20220;-88
2024/02/01 00:10:14;;;;;;;8.50;6.60;;;9.80;99.90;;;;;;5029678;28;20212;-87
2024/02/01 00:12:40;;;;;;;7.00;5.90;;;9.80;99.90;;;;;;5029218;28;20335;-87
2024/02/01 00:15:06;;;;;;;9.68;6.35;;;9.80;99.90;;;;;;5028831;28;20252;-88
2024/02/01 00:17:31;;;;;;;8.93;5.97;;;10.00;99.90;;;;;;5030483;28;20280;-88
2024/02/01 00:19:57;;;;;;;6.63;5.53;;;9.70;99.90;;;;;;5037574;28;20442;-89
2024/02/01 00:22:22;;;;;;;6.90;5.90;;;9.80;99.90;;;;;;5036680;28;20189;-88
2024/02/01 00:24:49;;;;;;;7.37;5.37;;;9.70;99.90;;;;;;5031205;28;20218;-87
2024/02/01 00:27:15;;;;;;;10.15;5.40;;;9.90;99.90;;;;;;5043417;28;20235;-88
2024/02/01 00:29:40;;;;;;;8.43;5.53;;;10.10;99.90;;;;;;5055234;28;20247;-88
2024/02/01 00:32:06;;;;;;;9.30;6.30;;;10.30;99.90;;;;;;5039655;28;20195;-87
2024/02/01 00:34:32;;;;;;;7.43;5.60;;;10.10;99.90;;;;;;5029904;28;20582;-87
2024/02/01 00:36:58;;;;;;;5.72;5.13;;;9.80;99.90;;;;;;5032003;28;20298;-87
2024/02/01 00:39:24;;;;;;;6.33;4.87;;;9.60;99.90;;;;;;5028229;28;20247;-88
2024/02/01 00:41:49;;;;;;;5.40;4.80;;;9.60;99.90;;;;;;5032568;28;20747;-88
2024/02/01 00:44:15;;;;;;;7.43;5.17;;;9.70;99.90;;;;;;5030347;28;20179;-88
2024/02/01 00:46:40;;;;;;;5.47;4.97;;;10.30;99.90;;;;;;5034655;28;20209;-88
2024/02/01 00:49:06;;;;;;;6.43;4.80;;;10.00;99.90;;;;;;5031509;28;20188;-87
2024/02/01 00:51:31;;;;;;;6.80;5.30;;;10.30;99.90;;;;;;5033117;28;20262;-88
2024/02/01 00:53:57;;;;;;;7.47;5.63;;;9.80;99.90;;;;;;5038517;28;20273;-88
2024/02/01 00:56:22;;;;;;;5.13;4.60;;;9.90;99.90;;;;;;5036094;28;20200;-87
2024/02/01 00:58:48;;;;;;;5.93;5.33;;;10.00;99.90;;;;;;5037968;28;20228;-87
2024/02/01 01:01:13;;;;;;;10.10;5.17;;;9.40;99.90;;;;;;5055098;28;20187;-86
2024/02/01 01:03:38;;;;;;;7.50;5.10;;;9.60;99.90;;;;;;5051378;28;20253;-88
2024/02/01 01:06:04;;;;;;;8.57;5.23;;;9.80;99.90;;;;;;5055593;28;20280;-86
2024/02/01 01:08:30;;;;;;;7.33;5.43;;;10.30;99.90;;;;;;5035324;28;20213;-88
2024/02/01 01:10:55;;;;;;;5.37;4.87;;;9.80;99.90;;;;;;5033758;28;20179;-87
2024/02/01 01:13:21;;;;;;;7.93;6.10;;;10.00;99.90;;;;;;5042628;28;20557;-88
2024/02/01 01:15:46;;;;;;;6.27;5.50;;;9.80;99.90;;;;;;5032419;28;20200;-87
2024/02/01 01:18:12;;;;;;;5.80;5.20;;;9.80;99.90;;;;;;5037990;28;20184;-86
2024/02/01 01:20:37;;;;;;;9.17;6.60;;;9.90;99.90;;;;;;5035916;28;20193;-88
2024/02/01 01:23:03;;;;;;;6.97;4.80;;;10.30;99.90;;;;;;5036274;28;20192;-87
2024/02/01 01:25:28;;;;;;;5.80;5.17;;;10.50;99.90;;;;;;5031130;28;20263;-88
2024/02/01 01:27:53;;;;;;;6.30;4.70;;;10.50;99.90;;;;;;5034792;28;20691;-88
2024/02/01 01:30:19;;;;;;;6.33;5.73;;;9.70;99.90;;;;;;5039399;28;20196;-87
2024/02/01 01:32:45;;;;;;;7.03;5.50;;;10.10;99.90;;;;;;5035998;28;20197;-87
2024/02/01 01:35:10;;;;;;;7.20;5.03;;;10.50;99.90;;;;;;5034390;28;20306;-88
2024/02/01 01:37:36;;;;;;;5.77;5.20;;;10.50;99.90;;;;;;5040402;28;20226;-88
2024/02/01 01:40:03;;;;;;;6.43;5.00;;;10.70;99.90;;;;;;5036345;28;20192;-88
2024/02/01 01:42:28;;;;;;;5.20;4.68;;;10.50;99.90;;;;;;5039801;28;20184;-88
2024/02/01 01:44:54;;;;;;;6.57;5.00;;;10.30;99.90;;;;;;5040869;28;20213;-87
2024/02/01 01:47:19;;;;;;;5.97;4.87;;;10.30;99.90;;;;;;5031303;28;20577;-88
2024/02/01 01:49:45;;;;;;;5.80;5.20;;;10.20;99.90;;;;;;5037336;28;20205;-89
2024/02/01 01:52:12;;;;;;;6.67;5.00;;;10.40;99.90;;;;;;5033068;28;20203;-87
2024/02/01 01:54:38;;;;;;;5.53;4.90;;;10.20;99.90;;;;;;5037902;28;20607;-88
2024/02/01 01:57:05;;;;;;;6.15;5.55;;;10.50;99.90;;;;;;5032507;28;20288;-87
2024/02/01 01:59:31;;;;;;;8.18;5.30;;;10.30;99.90;;;;;;5034875;28;20185;-88
2024/02/01 02:01:59;;;;;;;6.90;5.40;;;10.40;99.90;;;;;;5032794;28;20201;-87
2024/02/01 02:04:25;;;;;;;6.40;5.35;;;10.30;99.90;;;;;;5036337;28;20221;-87
2024/02/01 02:06:55;;;;;;;8.30;5.20;;;10.80;99.90;;;;;;5037848;28;20204;-88
2024/02/01 02:09:21;;;;;;;7.10;5.47;;;9.80;99.90;;;;;;5031226;28;20193;-88
2024/02/01 02:11:47;;;;;;;5.80;5.25;;;10.60;99.90;;;;;;5037571;28;20183;-88
2024/02/01 02:14:16;;;;;;;7.20;4.87;;;10.10;99.90;;;;;;5038853;28;20189;-88
2024/02/01 02:16:45;;;;;;;5.50;5.00;;;10.60;99.90;;;;;;5035825;28;20193;-89
2024/02/01 02:19:11;;;;;;;6.28;4.90;;;10.30;99.90;;;;;;5054154;28;20585;-88
2024/02/01 02:21:47;;;;;;;5.83;5.27;;;10.30;99.90;;;;;;5035990;28;20189;-89
2024/02/01 02:24:19;;;;;;;7.68;5.65;;;10.50;99.90;;;;;;5032766;28;20245;-88
2024/02/01 02:26:47;;;;;;;5.63;4.60;;;10.10;99.90;;;;;;5033354;28;20285;-88
2024/02/01 02:29:17;;;;;;;5.43;4.70;;;9.70;99.90;;;;;;5033624;28;20179;-88
2024/02/01 02:31:49;;;;;;;4.97;4.45;;;10.50;99.90;;;;;;5033619;28;20640;-88
2024/02/01 02:34:14;;;;;;;5.63;4.55;;;10.10;99.90;;;;;;5032043;28;20760;-89
2024/02/01 02:36:40;;;;;;;5.30;4.23;;;10.40;99.90;;;;;;5032010;28;20209;-87
2024/02/01 02:39:09;;;;;;;6.03;4.07;;;10.20;99.90;;;;;;5036225;28;20188;-88
2024/02/01 02:41:35;;;;;;;4.50;4.10;;;9.80;99.90;;;;;;5037155;28;20570;-87
2024/02/01 02:44:02;;;;;;;7.00;4.60;;;10.30;99.90;;;;;;5041828;28;20165;-87
2024/02/01 02:46:30;;;;;;;7.03;5.40;;;9.90;99.90;;;;;;5055513;28;20514;-87
2024/02/01 02:48:56;;;;;;;8.65;5.60;;;9.90;99.90;;;;;;5035428;28;20549;-87
2024/02/01 02:51:22;;;;;;;5.70;5.00;;;9.90;99.90;;;;;;5034561;28;20274;-88
2024/02/01 02:53:48;;;;;;;6.47;5.00;;;10.00;99.90;;;;;;5035617;28;20279;-87
2024/02/01 02:56:13;;;;;;;5.07;4.63;;;10.00;99.90;;;;;;5036336;28;20227;-87
2024/02/01 02:58:39;;;;;;;7.97;4.47;;;9.60;99.90;;;;;;5035875;28;20275;-88
2024/02/01 03:01:08;;;;;;;4.67;4.27;;;10.00;99.90;;;;;;5034363;28;20203;-87
2024/02/01 03:03:40;;;;;;;6.07;4.60;;;10.80;99.90;;;;;;5039325;28;20271;-87
2024/02/01 03:06:09;;;;;;;5.40;4.35;;;10.40;99.90;;;;;;5039862;28;20261;-88
2024/02/01 03:08:37;;;;;;;5.70;4.45;;;10.20;99.90;;;;;;5035874;28;20208;-87
2024/02/01 03:11:03;;;;;;;9.02;5.50;;;12.90;99.90;;;;;;5036931;28;20204;-88
2024/02/01 03:13:28;;;;;;;4.80;4.30;;;10.50;99.90;;;;;;5048892;28;20200;-88
2024/02/01 03:15:55;;;;;;;4.27;3.87;;;10.60;99.90;;;;;;5053105;28;20204;-88
2024/02/01 03:18:22;;;;;;;4.90;4.40;;;10.30;99.90;;;;;;5054830;28;20205;-87
2024/02/01 03:20:49;;;;;;;7.00;4.35;;;;;;;;;;5048761;28;20283;-87
2024/02/01 03:23:16;;;;;;;4.53;4.13;;;10.30;99.90;;;;;;5043996;28;20178;-87
2024/02/01 03:25:41;;;;;;;5.30;3.85;;;9.70;99.90;;;;;;5040189;28;20208;-87
2024/02/01 03:28:07;;;;;;;4.47;3.90;;;10.80;99.90;;;;;;5041510;28;20230;-88
2024/02/01 03:30:37;;;;;;;3.80;3.23;;;10.20;99.90;;;;;;5043304;28;20173;-88
2024/02/01 03:33:05;;;;;;;4.50;3.80;;;10.60;99.90;;;;;;5042964;28;20691;-88
2024/02/01 03:35:31;;;;;;;3.75;3.40;;;10.50;99.90;;;;;;5030022;28;20205;-87
2024/02/01 03:38:01;;;;;;;7.80;3.40;;;10.50;99.90;;;;;;5033090;28;20226;-88
2024/02/01 03:40:27;;;;;;;3.50;3.20;;;11.10;99.90;;;;;;5026639;28;20440;-87
2024/02/01 03:42:53;;;;;;;4.82;3.55;;;10.50;99.90;;;;;;5034948;28;20189;-87
2024/02/01 03:45:19;;;;;;;3.20;2.90;;;10.60;99.90;;;;;;5027893;28;20228;-87
2024/02/01 03:47:47;;;;;;;4.80;3.50;;;10.90;99.90;;;;;;5031061;28;20294;-87
2024/02/01 03:50:13;;;;;;;3.78;3.38;;;10.40;99.90;;;;;;5029103;28;20182;-87
2024/02/01 03:52:43;;;;;;;4.90;4.45;;;10.40;99.90;;;;;;5031031;28;20182;-88
2024/02/01 03:55:16;;;;;;;7.40;3.70;;;10.30;99.90;;;;;;5029717;28;20216;-87
2024/02/01 03:57:46;;;;;;;3.78;3.22;;;10.50;99.90;;;;;;5028326;28;20189;-87
2024/02/01 04:00:25;;;;;;;5.20;3.92;;;10.10;99.90;;;;;;5028139;28;20212;-88
2024/02/01 04:02:56;;;;;;;3.85;3.35;;;10.50;99.90;;;;;;5031428;28;20200;-89
2024/02/01 04:05:22;;;;;;;6.03;3.33;;;10.60;99.90;;;;;;5048595;28;20544;-88
2024/02/01 04:07:47;;;;;;;3.72;3.22;;;10.50;99.90;;;;;;5031288;28;20223;-88
2024/02/01 04:10:13;;;;;;;4.90;3.27;;;10.60;99.90;;;;;;5036931;28;20200;-87
2024/02/01 04:12:38;;;;;;;4.07;3.63;;;10.60;99.90;;;;;;5032496;28;20196;-88
2024/02/01 04:15:05;;;;;;;3.90;3.43;;;11.10;99.90;;;;;;5029019;28;20219;-87
2024/02/01 04:17:32;;;;;;;3.70;3.40;;;10.90;99.90;;;;;;5046238;28;20173;-90
2024/02/01 04:19:58;;;;;;;4.57;3.75;;;11.20;99.90;;;;;;5052483;28;20232;-87
2024/02/01 04:22:25;;;;;;;5.40;2.93;;;11.00;99.90;;;;;;5036233;28;20184;-87
2024/02/01 04:24:50;;;;;;;4.30;3.70;;;11.40;99.90;;;;;;5034141;28;20232;-87
2024/02/01 04:27:18;;;;;;;6.13;3.77;;;11.30;99.90;;;;;;5035081;28;20225;-89
2024/02/01 04:29:44;;;;;;;4.22;3.60;;;11.30;99.90;;;;;;5037914;28;20659;-88
2024/02/01 04:32:10;;;;;;;4.90;3.63;;;11.20;99.90;;;;;;5022383;28;20193;-89
2024/02/01 04:34:38;;;;;;;4.03;3.65;;;10.80;99.90;;;;;;5040063;28;20544;-89
2024/02/01 04:37:05;;;;;;;5.88;3.90;;;10.80;99.90;;;;;;5035582;28;20197;-89
2024/02/01 04:39:32;;;;;;;4.63;3.90;;;11.10;99.90;;;;;;5035385;28;20186;-87
2024/02/01 04:42:14;;;;;;;5.50;4.10;;;10.60;99.90;;;;;;5037748;28;20177;-87
2024/02/01 04:44:50;;;;;;;4.38;3.15;;;11.20;99.90;;;;;;5035945;28;20197;-88
2024/02/01 04:47:15;;;;;;;3.17;2.88;;;11.30;99.90;;;;;;5039994;28;20660;-89
2024/02/01 04:49:42;;;;;;;2.97;2.73;;;;;;;;;;5051852;28;20177;-88
2024/02/01 04:52:08;;;;;;;4.63;3.42;;;11.00;99.90;;;;;;5053252;28;20231;-87
2024/02/01 04:54:34;;;;;;;3.38;2.75;;;10.90;99.90;;;;;;5037883;28;20217;-88
2024/02/01 04:57:03;;;;;;;2.95;2.60;;;11.20;99.90;;;;;;5041306;28;20187;-87
2024/02/01 04:59:28;;;;;;;2.78;2.40;;;11.00;99.90;;;;;;5052248;28;20241;-87
2024/02/01 05:01:54;;;;;;;3.60;2.60;;;11.40;99.90;;;;;;5052357;28;20181;-88
2024/02/01 05:04:19;;;;;;;2.53;2.30;;;11.00;99.90;;;;;;5041428;28;21199;-86
2024/02/01 05:06:45;;;;;;;3.33;2.57;;;11.00;99.90;;;;;;5042645;28;20184;-87
2024/02/01 05:09:26;;;;;;;3.30;2.50;;;10.80;99.90;;;;;;5037369;28;20213;-87
2024/02/01 05:11:55;;;;;;;2.50;2.10;;;10.50;99.90;;;;;;5036814;28;20255;-86
2024/02/01 05:14:21;;;;;;;2.25;1.90;;;10.90;99.90;;;;;;5032243;28;20270;-87
2024/02/01 05:16:47;;;;;;;5.90;2.65;;;11.00;99.90;;;;;;5031644;28;20531;-87
2024/02/01 05:19:13;;;;;;;3.35;2.55;;;11.10;99.90;;;;;;5031338;28;20182;-89
2024/02/01 05:21:39;;;;;;;4.63;3.10;;;10.90;99.90;;;;;;5031900;28;20199;-87
2024/02/01 05:24:05;;;;;;;4.20;2.50;;;10.70;99.90;;;;;;5028482;28;20838;-86
2024/02/01 05:26:30;;;;;;;2.70;2.50;;;11.20;99.90;;;;;;5030755;28;20210;-87
2024/02/01 05:28:56;;;;;;;2.83;2.53;;;11.30;99.90;;;;;;5033084;28;20205;-87
2024/02/01 05:31:22;;;;;;;2.90;2.20;;;10.90;99.90;;;;;;5035837;28;20194;-88
2024/02/01 05:33:48;;;;;;;3.40;2.20;;;10.80;99.90;;;;;;5026768;28;20184;-88
2024/02/01 05:36:13;;;;;;;3.80;2.40;;;10.70;99.90;;;;;;5031417;28;20464;-87
2024/02/01 05:38:39;;;;;;;3.57;2.37;;;11.20;99.90;;;;;;5031190;28;20207;-87
2024/02/01 05:41:13;;;;;;;2.60;2.33;;;10.80;99.90;;;;;;5032167;28;20186;-88
2024/02/01 05:43:40;;;;;;;3.88;2.53;;;10.80;99.90;;;;;;5029617;28;20189;-86
2024/02/01 05:46:14;;;;;;;3.85;2.30;;;10.80;99.90;;;;;;5026379;28;20204;-88
2024/02/01 05:48:41;;;;;;;3.13;2.83;;;11.20;99.90;;;;;;5027173;28;20241;-87
2024/02/01 05:51:07;;;;;;;8.32;2.60;;;11.30;99.90;;;;;;5028696;28;20189;-88
2024/02/01 05:53:32;;;;;;;5.20;2.43;;;11.30;99.90;;;;;;5031260;28;20189;-89
2024/02/01 05:55:59;;;;;;;3.47;2.53;;;11.10;99.90;;;;;;5038192;28;20481;-86
2024/02/01 05:58:27;;;;;;;3.50;3.00;;;10.80;99.90;;;;;;5030510;28;20186;-88
2024/02/01 06:00:53;;;;;;;3.65;2.40;;;12.90;99.90;;;;;;5031603;28;20189;-87
2024/02/01 06:03:18;;;;;;;4.72;3.40;;;10.90;99.90;;;;;;5033259;28;20180;-88
2024/02/01 06:05:48;;;;;;;4.73;2.70;;;10.50;99.90;;;;;;5032566;28;20682;-87
2024/02/01 06:08:14;;;;;;;3.08;2.78;;;10.90;99.90;;;;;;5032985;28;20220;-87
2024/02/01 06:10:43;;;;;;;4.20;3.20;;;11.00;99.90;;;;;;5029118;28;20178;-88
2024/02/01 06:13:09;;;;;;;3.70;3.25;;;12.70;99.90;;;;;;5034686;28;20440;-89
2024/02/01 06:15:34;;;;;;;3.07;2.70;;;11.30;99.90;;;;;;5031283;28;20691;-88
2024/02/01 06:18:00;;;;;;;4.07;3.40;;;11.10;99.90;;;;;;5032258;28;20230;-88
2024/02/01 06:20:26;;;;;;;5.57;3.53;;;11.20;99.90;;;;;;5034564;28;20178;-89
2024/02/01 06:22:51;;;;;;;3.63;3.20;;;11.50;99.90;;;;;;5029868;28;21028;-89
2024/02/01 06:25:17;;;;;;;3.60;3.07;;;11.00;99.90;;;;;;5030818;28;20274;-87
2024/02/01 06:27:43;;;;;;;3.43;3.13;;;11.20;99.90;;;;;;5030960;28;20274;-88
2024/02/01 06:30:12;;;;;;;4.27;3.70;;;10.90;99.90;;;;;;5031766;28;20631;-88
2024/02/01 06:32:43;;;;;;;5.28;3.38;;;11.20;99.90;;;;;;5030417;28;20666;-88
2024/02/01 06:35:20;;;;;;;3.70;2.83;;;11.50;99.90;;;;;;5027110;28;20696;-89
2024/02/01 06:37:53;;;;;;;4.70;3.30;;;11.30;99.90;;;;;;5032697;28;20205;-90
2024/02/01 06:43:10;;;;;;;4.50;3.35;;;11.20;99.90;;;;;;5038068;28;20229;-88
2024/02/01 06:45:47;;;;;;;3.65;2.95;;;10.90;99.90;;;;;;5026926;28;20307;-88
2024/02/01 06:48:14;;;;;;;4.60;2.60;;;10.60;99.90;;;;;;5033892;28;20735;-88
2024/02/01 06:50:57;;;;;;;3.78;3.30;;;10.70;99.90;;;;;;5040935;28;20184;-89
2024/02/01 06:53:34;;;;;;;7.00;3.65;;;11.00;99.90;;;;;;5040455;28;20203;-89
2024/02/01 06:56:07;;;;;;;4.40;3.50;;;10.60;99.90;;;;;;5390636;23;20239;-90
2024/02/01 06:59:06;;;;;;;6.00;4.25;;;;;;;;;;5034510;28;20203;-90
2024/02/01 07:01:39;;;;;;;7.88;4.15;;;10.40;99.90;;;;;;5048923;28;20207;-89
2024/02/01 07:04:15;;;;;;;5.75;4.20;;;11.80;99.90;;;;;;5062186;28;20187;-91
2024/02/01 07:07:04;;;;;;;8.35;4.43;;;9.40;99.90;;;;;;5038732;28;20293;-90
2024/02/01 07:09:36;;;;;;;6.05;5.45;;;;;;;;;;5036102;28;20712;-89
2024/02/01 07:15:19;;;;;;;5.22;3.50;;;10.00;99.90;;;;;;5015213;28;20220;-90
2024/02/01 07:17:45;;;;;;;5.35;4.55;;;10.00;99.90;;;;;;5031798;28;20184;-88
2024/02/01 07:20:23;;;;;;;4.15;3.55;;;10.20;99.90;;;;;;5030104;28;20207;-88
2024/02/01 07:23:16;;;;;;;3.60;3.13;;;9.90;99.90;;;;;;5034605;28;20245;-89
2024/02/01 07:25:48;;;;;;;3.97;2.78;;;10.00;99.90;;;;;;5038021;28;20205;-88
2024/02/01 07:58:39;;;;;;;3.20;2.50;;;9.80;99.90;;;;;;5029171;28;20221;-90
2024/02/01 08:01:14;;;;;;;3.30;2.53;;;9.30;99.90;;;;;;5027241;28;20186;-90
2024/02/01 08:03:56;;;;;;;4.53;2.55;;;9.90;99.90;;;;;;5049838;28;20190;-90
2024/02/01 08:09:14;;;;;;;2.80;2.50;;;10.10;99.90;;;;;;5030410;28;20201;-89
2024/02/01 08:11:43;;;;;;;6.18;3.55;;;10.70;99.90;;;;;;5025990;28;20196;-88
2024/02/01 08:14:13;;;;;;;4.10;2.90;;;9.60;99.90;;;;;;5049402;28;20708;-89
2024/02/01 08:16:39;;;;;;;2.90;2.60;;;9.60;99.90;;;;;;5028526;28;20227;-86
2024/02/01 08:19:06;;;;;;;3.80;2.77;;;9.40;99.90;;;;;;5034228;28;20195;-86
2024/02/01 08:21:36;;;;;;;3.35;2.50;;;9.80;99.90;;;;;;5016129;28;20428;-88
2024/02/01 08:24:09;;;;;;;3.22;2.40;;;9.70;99.90;;;;;;5031128;28;20192;-87
2024/02/01 08:26:39;;;;;;;2.72;2.53;;;9.70;99.90;;;;;;5047277;28;20318;-89
2024/02/01 08:29:14;;;;;;;2.85;2.55;;;9.70;99.90;;;;;;5037532;28;20187;-87
2024/02/01 08:31:40;;;;;;;2.97;2.25;;;;;;;;;;5030477;28;20657;-87
2024/02/01 08:34:14;;;;;;;3.40;2.20;;;9.70;99.90;;;;;;5028046;28;20211;-89
2024/02/01 08:36:43;;;;;;;2.50;2.30;;;9.80;99.90;;;;;;5032528;28;20696;-87
2024/02/01 08:39:09;;;;;;;3.25;2.33;;;9.60;99.90;;;;;;5031500;28;20295;-86
2024/02/01 08:41:37;;;;;;;5.50;2.40;;;9.70;99.90;;;;;;5033147;28;20184;-86
2024/02/01 08:44:08;;;;;;;3.83;2.90;;;10.00;99.90;;;;;;5025228;28;20216;-84
2024/02/01 08:46:34;;;;;;;2.55;2.35;;;9.90;99.90;;;;;;5028816;28;20203;-85
2024/02/01 08:49:01;;;;;;;2.45;2.13;;;9.70;99.90;;;;;;5030710;28;20212;-85
2024/02/01 08:51:26;;;;;;;3.67;2.75;;;9.20;99.90;;;;;;5036349;28;20223;-85
2024/02/01 08:53:53;;;;;;;9.17;3.37;;;9.90;99.90;;;;;;5031950;28;20662;-86
2024/02/01 08:56:36;;;;;;;3.47;2.30;;;9.80;99.90;;;;;;5024660;28;20242;-87
2024/02/01 08:59:07;;;;;;;3.10;2.42;;;9.70;99.90;;;;;;5028537;28;20275;-88
2024/02/01 09:01:32;;;;;;;2.78;2.53;;;10.10;99.90;;;;;;5025853;28;20649;-87
2024/02/01 09:03:59;;;;;;;2.57;2.13;;;9.70;99.90;;;;;;5046450;28;20190;-91
2024/02/01 09:06:24;;;;;;;4.25;3.15;;;9.80;99.90;;;;;;5028295;28;20209;-89
2024/02/01 09:08:50;;;;;;;2.87;2.23;;;10.20;99.90;;;;;;5022155;28;20260;-89
2024/02/01 09:11:17;;;;;;;2.90;2.13;;;10.00;99.90;;;;;;5029036;28;20275;-88
2024/02/01 09:13:44;;;;;;;1.90;1.75;;;9.70;99.90;;;;;;5025847;28;20188;-87
2024/02/01 09:16:30;;;;;;;2.90;2.20;;;9.60;99.90;;;;;;5024528;28;20265;-87
2024/02/01 09:18:56;;;;;;;3.58;1.80;;;10.20;99.90;;;;;;5025948;28;20258;-89
2024/02/01 09:21:24;;;;;;;1.88;1.77;;;9.90;99.90;;;;;;5026958;28;20190;-92
2024/02/01 09:23:50;;;;;;;2.20;2.00;;;11.70;99.90;;;;;;5045218;28;20192;-89
2024/02/01 09:26:15;;;;;;;2.93;2.00;;;9.80;99.90;;;;;;5044814;28;20230;-89
2024/02/01 09:28:41;;;;;;;2.60;1.80;;;10.00;99.90;;;;;;5030890;28;20704;-89
2024/02/01 09:31:18;;;;;;;2.43;2.23;;;10.60;99.90;;;;;;5029282;28;20650;-89
2024/02/01 09:33:48;;;;;;;2.25;2.05;;;10.30;99.90;;;;;;5026079;28;20213;-89
2024/02/01 09:36:14;;;;;;;3.28;2.10;;;10.30;99.90;;;;;;5027842;28;20231;-89
2024/02/01 09:38:40;;;;;;;3.33;2.10;;;10.40;99.90;;;;;;5029937;28;20673;-91
2024/02/01 09:41:15;;;;;;;3.10;1.97;;;10.60;99.90;;;;;;5027844;28;20467;-88
2024/02/01 09:43:47;;;;;;;4.50;2.45;;;10.40;99.90;;;;;;5027641;28;20553;-90
2024/02/01 09:46:15;;;;;;;3.08;2.20;;;10.30;99.90;;;;;;5031124;28;20296;-88
2024/02/01 09:48:41;;;;;;;3.00;1.95;;;10.70;99.90;;;;;;5031301;28;20729;-88
2024/02/01 09:51:17;;;;;;;7.50;6.10;;;10.60;99.90;;;;;;5026005;28;20214;-89
2024/02/01 09:53:56;;;;;;;3.45;2.95;;;10.80;99.90;;;;;;5009015;28;20440;-88
2024/02/01 09:56:25;;;;;;;3.00;2.13;;;11.30;99.90;;;;;;5043061;28;20567;-86
2024/02/01 09:58:51;;;;;;;3.88;2.40;;;11.70;99.90;;;;;;5023145;28;20363;-89
2024/02/01 10:01:17;;;;;;;2.92;2.25;;;11.00;99.90;;;;;;5031443;28;20185;-89
2024/02/01 10:03:43;;;;;;;2.75;2.45;;;;;;;;;;5047130;28;20711;-89
2024/02/01 10:06:09;;;;;;;2.75;1.85;;;11.40;99.90;;;;;;5028003;28;20216;-90
2024/02/01 10:08:36;;;;;;;2.63;1.98;;;11.50;99.90;;;;;;5049508;28;20203;-90
2024/02/01 10:11:06;;;;;;;3.78;2.05;;;11.30;99.90;;;;;;5028322;28;20712;-85
2024/02/01 10:13:36;;;;;;;3.30;2.20;;;11.50;99.90;;;;;;5026471;28;20866;-87
2024/02/01 10:16:02;;;;;;;4.45;2.10;;;11.40;99.90;;;;;;5026290;28;20206;-85
2024/02/01 10:18:28;;;;;;;2.27;1.97;;;11.50;99.90;;;;;;5022074;28;20200;-90
2024/02/01 10:20:59;;;;;;;2.20;1.90;;;11.50;99.90;;;;;;5023765;28;20258;-89
2024/02/01 14:29:49;;;;;;;3.67;3.38;;;10.70;99.90;;;;;;4970318;28;20234;-90
2024/02/01 14:32:16;;;;;;;4.30;3.60;;;10.40;99.90;;;;;;4965520;28;20262;-88
2024/02/01 14:34:42;;;;;;;3.72;3.42;;;11.10;99.90;;;;;;4977764;28;20217;-89
2024/02/01 14:37:14;;;;;;;4.38;3.35;;;12.80;99.90;;;;;;4961591;28;20253;-89
2024/02/01 14:52:05;;;;;;;3.35;3.05;;;10.60;99.90;;;;;;4955323;28;20218;-88
2024/02/01 14:54:44;;;;;;;4.10;3.75;;;10.30;99.90;;;;;;4946099;28;20187;-90
2024/02/01 15:01:23;;;;;;;3.88;3.58;;;11.40;99.90;;;;;;4947490;29;20253;-89
2024/02/01 15:03:53;;;;;;;9.10;6.20;;;10.10;99.90;;;;;;4939697;28;20753;-89
2024/02/01 15:06:22;;;;;;;7.03;4.90;;;10.60;99.90;;;;;;4941521;29;20521;-88
2024/02/01 15:08:58;;;;;;;4.30;3.90;;;10.60;99.90;;;;;;4937649;28;20259;-88
2024/02/01 15:11:24;;;;;;;4.88;4.00;;;10.50;99.90;;;;;;4941776;28;20191;-89
2024/02/01 15:13:50;;;;;;;3.40;3.10;;;11.60;99.90;;;;;;4935684;29;20330;-88
2024/02/01 15:16:16;;;;;;;6.80;6.10;;;9.40;99.90;;;;;;4933208;29;20658;-88
2024/02/01 15:18:44;;;;;;;4.20;3.90;;;8.90;99.90;;;;;;4935222;29;20186;-88
2024/02/01 15:21:14;;;;;;;4.75;4.25;;;11.50;99.90;;;;;;4934766;28;20290;-88
2024/02/01 15:23:43;;;;;;;4.70;4.10;;;10.80;99.90;;;;;;4928882;28;20801;-89
2024/02/01 15:26:14;;;;;;;4.65;4.20;;;11.30;99.90;;;;;;4946106;28;20255;-88
2024/02/01 15:28:40;;;;;;;4.50;4.00;;;11.00;99.90;;;;;;4932391;29;20218;-89
2024/02/01 15:31:11;;;;;;;4.90;4.38;;;11.70;99.90;;;;;;4917668;29;20230;-88
2024/02/01 15:33:45;;;;;;;4.45;3.70;;;10.20;99.90;;;;;;4928406;29;20226;-88
2024/02/01 15:36:11;;;;;;;5.63;4.55;;;;;;;;;;4925846;29;20219;-87
2024/02/01 15:38:40;;;;;;;6.88;5.43;;;10.20;99.90;;;;;;4952030;28;20260;-89
2024/02/01 15:41:06;;;;;;;4.53;4.15;;;10.30;99.90;;;;;;4934254;29;20258;-89
2024/02/01 15:43:33;;;;;;;8.60;4.63;;;;;;;;;;4947812;28;20638;-89
2024/02/01 15:45:59;;;;;;;5.32;4.82;;;;;;;;;;4944263;28;20221;-89
2024/02/01 15:48:24;;;;;;;7.63;5.78;;;10.50;99.90;;;;;;4949940;28;20207;-89
2024/02/01 15:50:53;;;;;;;6.00;5.40;;;10.50;99.90;;;;;;4931232;29;20208;-88
2024/02/01 15:53:19;;;;;;;6.13;5.53;;;9.70;99.90;;;;;;4931628;29;20251;-89
2024/02/01 15:55:45;;;;;;;6.40;5.00;;;;;;;;;;4943026;29;20241;-89
2024/02/01 15:58:14;;;;;;;4.40;4.00;;;9.50;99.90;;;;;;4952316;29;20203;-88
2024/02/01 16:00:43;;;;;;;4.65;4.25;;;13.00;99.90;;;;;;4933002;29;20212;-90
2024/02/01 16:03:10;;;;;;;4.03;3.58;;;11.90;99.90;;;;;;4932754;29;20199;-88
2024/02/01 16:05:53;;;;;;;4.00;3.60;;;9.60;99.90;;;;;;4944201;29;20211;-87
2024/02/01 16:08:19;;;;;;;4.20;3.80;;;10.30;99.90;;;;;;4950012;28;20213;-89
2024/02/01 16:10:48;;;;;;;4.57;4.17;;;10.40;99.90;;;;;;4932399;29;20317;-88
2024/02/01 16:13:14;;;;;;;4.88;4.47;;;10.50;99.90;;;;;;4937234;29;20263;-88
2024/02/01 16:15:40;;;;;;;4.90;4.40;;;10.20;99.90;;;;;;4940519;28;20211;-89
2024/02/01 16:18:25;;;;;;;4.40;4.00;;;10.10;99.90;;;;;;4937867;29;20197;-88
2024/02/01 16:20:53;;;;;;;5.65;4.95;;;10.10;99.90;;;;;;4954145;28;20464;-89
2024/02/01 16:23:20;;;;;;;5.57;5.07;;;10.60;99.90;;;;;;4932684;28;20189;-89
2024/02/01 16:25:46;;;;;;;5.35;4.82;;;10.10;99.90;;;;;;4941701;29;20232;-89
2024/02/01 16:28:27;;;;;;;6.40;5.07;;;10.00;99.90;;;;;;4945111;29;20302;-89
2024/02/01 16:31:07;;;;;;;6.35;5.75;;;10.00;99.90;;;;;;4946638;29;20178;-90
2024/02/01 16:33:45;;;;;;;6.85;6.25;;;9.90;99.90;;;;;;4940584;29;20191;-89
2024/02/01 16:36:20;;;;;;;6.68;5.97;;;10.00;99.90;;;;;;4958771;28;20210;-89
2024/02/01 16:38:46;;;;;;;7.25;6.25;;;9.90;99.90;;;;;;4961288;28;20226;-90
2024/02/01 16:41:29;;;;;;;7.47;6.63;;;9.90;99.90;;;;;;4940677;28;20413;-90
2024/02/01 16:43:54;;;;;;;8.45;7.30;;;9.80;99.90;;;;;;4941324;29;20190;-88
2024/02/01 16:46:45;;;;;;;6.60;5.90;;;9.80;99.90;;;;;;4936648;29;20729;-89
2024/02/01 16:49:13;;;;;;;8.13;7.20;;;11.70;99.90;;;;;;4934758;29;20235;-89
2024/02/01 16:51:38;;;;;;;8.25;7.32;;;9.70;99.90;;;;;;4940578;29;20197;-90
2024/02/01 16:54:06;;;;;;;6.60;5.93;;;9.90;99.90;;;;;;4940265;28;20237;-91
2024/02/01 16:56:32;;;;;;;6.88;5.60;;;9.70;99.90;;;;;;4935947;29;20206;-90
2024/02/01 16:58:58;;;;;;;7.07;6.20;;;;;;;;;;4936358;29;20189;-90
2024/02/01 17:01:39;;;;;;;10.35;9.18;;;9.50;99.90;;;;;;4954242;28;20236;-90
2024/02/01 17:04:11;;;;;;;7.55;6.78;;;9.50;99.90;;;;;;4939744;28;20857;-88
2024/02/01 17:06:37;;;;;;;11.07;7.00;;;9.50;99.90;;;;;;4941041;28;20214;-89
2024/02/01 17:09:04;;;;;;;7.20;6.50;;;9.20;99.90;;;;;;4942304;28;20205;-88
2024/02/01 17:11:35;;;;;;;14.07;9.98;;;9.00;99.90;;;;;;4937980;29;20749;-90
2024/02/01 17:14:16;;;;;;;8.30;6.20;;;9.20;99.90;;;;;;4935831;29;20771;-89
2024/02/01 17:17:03;;;;;;;7.82;6.97;;;8.90;99.90;;;;;;4953295;28;20221;-89
2024/02/01 17:19:40;;;;;;;10.32;7.47;;;8.60;99.90;;;;;;4955067;28;20487;-89
2024/02/01 17:22:25;;;;;;;7.00;6.30;;;8.80;99.90;;;;;;4935872;29;20258;-89
2024/02/01 17:24:51;;;;;;;7.80;6.40;;;8.60;99.90;;;;;;4947704;29;20218;-89
2024/02/01 17:27:28;;;;;;;9.00;6.70;;;9.00;99.90;;;;;;4937437;29;20583;-89
2024/02/01 17:29:56;;;;;;;6.90;6.03;;;8.50;99.90;;;;;;4941647;29;20199;-89
2024/02/01 17:32:24;;;;;;;8.05;6.50;;;8.50;99.90;;;;;;4937425;29;20599;-90
2024/02/01 17:34:50;;;;;;;8.25;7.15;;;8.50;99.90;;;;;;4934966;29;20244;-90
2024/02/01 17:37:37;;;;;;;9.07;8.17;;;8.50;99.90;;;;;;4938263;29;20219;-90
2024/02/01 17:40:10;;;;;;;9.98;8.98;;;8.60;99.90;;;;;;4940240;29;20991;-90
2024/02/01 17:42:37;;;;;;;9.45;8.02;;;8.90;99.90;;;;;;4939568;29;20753;-90
2024/02/01 17:45:09;;;;;;;10.27;9.07;;;8.80;99.90;;;;;;4938354;28;20417;-89
2024/02/01 17:47:35;;;;;;;10.25;8.38;;;8.50;99.90;;;;;;4956283;28;20194;-90
2024/02/01 17:50:17;;;;;;;7.50;6.80;;;8.30;99.90;;;;;;4957994;28;20204;-90
2024/02/01 17:52:53;;;;;;;8.80;7.18;;;8.20;99.90;;;;;;4942547;29;20909;-89
2024/02/01 17:55:26;;;;;;;7.43;6.63;;;8.30;99.90;;;;;;4940582;29;20213;-90
2024/02/01 17:57:57;;;;;;;7.68;6.68;;;8.40;99.90;;;;;;4937683;29;20219;-89
2024/02/01 18:00:27;;;;;;;7.85;7.05;;;8.20;99.90;;;;;;4933940;29;20201;-90
2024/02/01 18:02:57;;;;;;;7.72;6.93;;;8.00;99.90;;;;;;4940462;29;20209;-90